createdAt,value
2019-03-20T00:00:52.389Z,83.026123
2019-03-20T00:01:52.546Z,82.818604
2019-03-20T00:02:52.656Z,82.714844
2019-03-20T00:03:53.744Z,82.611084
2019-03-20T00:04:52.849Z,82.611084
2019-03-20T00:05:52.944Z,82.818604
2019-03-20T00:06:53.070Z,82.714844
2019-03-20T00:07:53.164Z,82.818604
2019-03-20T00:08:53.290Z,82.922363
2019-03-20T00:09:53.395Z,83.026123
2019-03-20T00:10:53.496Z,83.062744
2019-03-20T00:11:53.614Z,83.062744
2019-03-20T00:12:53.715Z,83.441162
2019-03-20T00:13:53.848Z,83.752441
2019-03-20T00:14:53.994Z,83.856201
2019-03-20T00:15:54.092Z,84.27124
2019-03-20T00:16:54.231Z,84.484863
2019-03-20T00:17:54.308Z,84.16748
2019-03-20T00:18:54.407Z,83.959961
2019-03-20T00:19:54.518Z,83.959961
2019-03-20T00:20:54.621Z,83.959961
2019-03-20T00:21:54.742Z,83.856201
2019-03-20T00:22:54.846Z,83.959961
2019-03-20T00:23:54.980Z,84.002686
2019-03-20T00:24:55.103Z,83.898926
2019-03-20T00:25:55.223Z,83.795166
2019-03-20T00:26:55.350Z,83.685303
2019-03-20T00:27:55.471Z,83.685303
2019-03-20T00:28:55.579Z,83.795166
2019-03-20T00:29:55.692Z,83.795166
2019-03-20T00:30:55.802Z,84.106445
2019-03-20T00:31:55.965Z,84.106445
2019-03-20T00:32:56.061Z,84.313965
2019-03-20T00:33:56.211Z,84.210205
2019-03-20T00:35:00.684Z,84.210205
2019-03-20T00:35:56.410Z,84.210205
2019-03-20T00:36:56.556Z,84.246826
2019-03-20T00:37:56.511Z,84.246826
2019-03-20T00:38:56.522Z,84.246826
2019-03-20T00:39:56.621Z,84.350586
2019-03-20T00:40:56.732Z,84.350586
2019-03-20T00:41:56.854Z,84.765625
2019-03-20T00:42:56.827Z,84.661865
2019-03-20T00:43:56.926Z,84.454346
2019-03-20T00:44:57.030Z,84.454346
2019-03-20T00:45:57.025Z,84.661865
2019-03-20T00:46:57.131Z,84.661865
2019-03-20T00:47:58.172Z,84.765625
2019-03-20T00:48:57.277Z,84.661865
2019-03-20T00:49:58.153Z,84.661865
2019-03-20T00:50:57.468Z,84.765625
2019-03-20T00:51:57.565Z,84.661865
2019-03-20T00:52:57.729Z,84.661865
2019-03-20T00:53:57.829Z,84.80835
2019-03-20T00:54:57.936Z,84.765625
2019-03-20T00:55:58.048Z,84.765625
2019-03-20T00:56:58.157Z,84.765625
2019-03-20T00:57:58.288Z,84.869385
2019-03-20T00:58:58.385Z,85.186768
2019-03-20T00:59:58.487Z,85.186768
2019-03-20T01:00:58.592Z,85.015869
2019-03-20T01:01:58.694Z,85.327148
2019-03-20T01:02:58.887Z,85.430908
2019-03-20T01:03:58.944Z,85.327148
2019-03-20T01:04:59.067Z,85.223389
2019-03-20T01:06:00.130Z,85.223389
2019-03-20T01:06:59.233Z,85.223389
2019-03-20T01:07:59.361Z,85.119629
2019-03-20T01:08:59.484Z,85.223389
2019-03-20T01:09:59.584Z,85.223389
2019-03-20T01:10:59.679Z,85.327148
2019-03-20T01:11:59.789Z,85.327148
2019-03-20T01:12:59.830Z,85.327148
2019-03-20T01:13:59.945Z,85.534668
2019-03-20T01:15:00.053Z,85.638428
2019-03-20T01:16:00.164Z,85.845947
2019-03-20T01:17:01.257Z,85.955811
2019-03-20T01:18:00.396Z,85.845947
2019-03-20T01:19:00.502Z,86.37085
2019-03-20T01:20:00.628Z,86.26709
2019-03-20T01:21:00.735Z,86.26709
2019-03-20T01:22:00.848Z,86.578369
2019-03-20T01:23:00.996Z,86.578369
2019-03-20T01:24:01.099Z,86.474609
2019-03-20T01:25:01.200Z,86.407471
2019-03-20T01:26:01.304Z,86.37085
2019-03-20T01:27:01.409Z,86.26709
2019-03-20T01:28:01.482Z,86.474609
2019-03-20T01:29:01.585Z,86.37085
2019-03-20T01:30:01.672Z,86.37085
2019-03-20T01:31:01.773Z,86.37085
2019-03-20T01:32:01.873Z,86.407471
2019-03-20T01:33:02.011Z,86.407471
2019-03-20T01:34:02.123Z,86.407471
2019-03-20T01:35:02.232Z,86.407471
2019-03-20T01:36:03.310Z,86.51123
2019-03-20T01:37:02.428Z,86.51123
2019-03-20T01:38:02.406Z,86.61499
2019-03-20T01:39:02.556Z,86.51123
2019-03-20T01:40:02.663Z,86.724854
2019-03-20T01:41:02.763Z,86.828613
2019-03-20T01:42:02.892Z,86.724854
2019-03-20T01:43:03.029Z,86.724854
2019-03-20T01:44:03.139Z,86.724854
2019-03-20T01:45:03.237Z,86.61499
2019-03-20T01:46:03.329Z,86.61499
2019-03-20T01:47:03.467Z,86.51123
2019-03-20T01:48:03.468Z,86.828613
2019-03-20T01:49:03.580Z,86.932373
2019-03-20T01:50:03.701Z,86.724854
2019-03-20T01:51:03.798Z,86.724854
2019-03-20T01:52:03.901Z,87.139893
2019-03-20T01:53:04.066Z,87.451172
2019-03-20T01:54:04.164Z,87.243652
2019-03-20T01:55:04.301Z,87.139893
2019-03-20T01:56:04.402Z,87.139893
2019-03-20T01:57:04.507Z,87.139893
2019-03-20T01:58:04.706Z,87.139893
2019-03-20T01:59:04.693Z,87.139893
2019-03-20T02:00:04.687Z,87.036133
2019-03-20T02:01:04.783Z,86.932373
2019-03-20T02:02:04.885Z,86.828613
2019-03-20T02:03:04.995Z,86.828613
2019-03-20T02:04:05.099Z,86.932373
2019-03-20T02:05:05.216Z,87.036133
2019-03-20T02:06:05.327Z,87.036133
2019-03-20T02:07:05.430Z,87.280273
2019-03-20T02:08:05.564Z,87.280273
2019-03-20T02:09:05.679Z,87.176514
2019-03-20T02:10:05.782Z,87.176514
2019-03-20T02:11:05.787Z,87.176514
2019-03-20T02:12:05.895Z,87.176514
2019-03-20T02:13:06.037Z,87.176514
2019-03-20T02:14:06.140Z,87.176514
2019-03-20T02:15:07.237Z,87.176514
2019-03-20T02:16:06.358Z,87.176514
2019-03-20T02:17:06.456Z,87.176514
2019-03-20T02:18:06.590Z,87.176514
2019-03-20T02:19:06.710Z,87.176514
2019-03-20T02:20:06.781Z,87.280273
2019-03-20T02:21:06.883Z,87.280273
2019-03-20T02:22:07.028Z,87.176514
2019-03-20T02:23:07.150Z,87.280273
2019-03-20T02:24:07.253Z,87.280273
2019-03-20T02:25:07.384Z,87.493896
2019-03-20T02:26:07.491Z,87.493896
2019-03-20T02:27:07.608Z,87.493896
2019-03-20T02:28:07.769Z,87.493896
2019-03-20T02:29:07.740Z,87.493896
2019-03-20T02:30:07.847Z,87.493896
2019-03-20T02:31:07.968Z,87.597656
2019-03-20T02:32:08.079Z,87.597656
2019-03-20T02:33:08.236Z,87.634277
2019-03-20T02:34:08.170Z,87.597656
2019-03-20T02:35:08.265Z,87.530518
2019-03-20T02:36:08.364Z,87.530518
2019-03-20T02:37:08.476Z,87.426758
2019-03-20T02:38:08.599Z,87.426758
2019-03-20T02:39:08.726Z,87.530518
2019-03-20T02:40:08.866Z,87.634277
2019-03-20T02:41:08.977Z,87.634277
2019-03-20T02:42:09.087Z,87.738037
2019-03-20T02:43:09.201Z,87.841797
2019-03-20T02:44:09.282Z,87.738037
2019-03-20T02:45:09.401Z,87.738037
2019-03-20T02:46:09.501Z,87.841797
2019-03-20T02:47:09.597Z,87.738037
2019-03-20T02:48:09.704Z,87.95166
2019-03-20T02:49:09.848Z,88.05542
2019-03-20T02:50:09.948Z,88.05542
2019-03-20T02:51:10.047Z,88.05542
2019-03-20T02:52:10.185Z,88.05542
2019-03-20T02:53:10.277Z,88.05542
2019-03-20T02:54:10.403Z,88.262939
2019-03-20T02:55:10.422Z,88.470459
2019-03-20T02:56:10.579Z,88.366699
2019-03-20T02:57:10.663Z,88.262939
2019-03-20T02:58:10.773Z,88.262939
2019-03-20T02:59:10.778Z,88.15918
2019-03-20T03:00:10.892Z,88.15918
2019-03-20T03:01:11.004Z,88.05542
2019-03-20T03:02:11.112Z,88.05542
2019-03-20T03:03:11.208Z,88.05542
2019-03-20T03:04:11.313Z,88.05542
2019-03-20T03:05:11.432Z,87.95166
2019-03-20T03:06:11.539Z,87.95166
2019-03-20T03:07:11.651Z,88.05542
2019-03-20T03:08:11.747Z,88.15918
2019-03-20T03:09:11.878Z,88.15918
2019-03-20T03:10:11.985Z,88.262939
2019-03-20T03:11:12.081Z,88.262939
2019-03-20T03:12:12.184Z,88.262939
2019-03-20T03:13:13.280Z,88.262939
2019-03-20T03:14:12.410Z,88.262939
2019-03-20T03:15:12.512Z,88.195801
2019-03-20T03:16:12.610Z,88.195801
2019-03-20T03:17:12.716Z,88.513184
2019-03-20T03:18:12.819Z,88.470459
2019-03-20T03:19:12.959Z,88.409424
2019-03-20T03:20:13.067Z,88.409424
2019-03-20T03:21:13.161Z,88.299561
2019-03-20T03:22:13.252Z,88.409424
2019-03-20T03:23:13.347Z,88.513184
2019-03-20T03:24:13.520Z,88.513184
2019-03-20T03:25:13.626Z,88.513184
2019-03-20T03:26:13.729Z,88.513184
2019-03-20T03:27:13.839Z,88.409424
2019-03-20T03:28:13.939Z,88.409424
2019-03-20T03:29:13.972Z,88.513184
2019-03-20T03:30:14.081Z,88.616943
2019-03-20T03:31:14.229Z,88.616943
2019-03-20T03:32:14.438Z,88.720703
2019-03-20T03:33:14.376Z,88.720703
2019-03-20T03:34:14.495Z,88.616943
2019-03-20T03:35:17.613Z,88.720703
2019-03-20T03:36:20.871Z,88.720703
2019-03-20T03:37:14.766Z,88.720703
2019-03-20T03:38:14.873Z,88.720703
2019-03-20T03:39:14.998Z,88.720703
2019-03-20T03:40:15.107Z,88.824463
2019-03-20T03:41:15.198Z,88.928223
2019-03-20T03:42:15.305Z,89.031982
2019-03-20T03:43:15.424Z,89.135742
2019-03-20T03:44:15.546Z,89.239502
2019-03-20T03:45:15.661Z,89.239502
2019-03-20T03:46:15.756Z,89.343262
2019-03-20T03:47:15.893Z,89.453125
2019-03-20T03:48:15.976Z,89.556885
2019-03-20T03:49:16.103Z,89.660645
2019-03-20T03:50:16.204Z,90.075684
2019-03-20T03:51:16.308Z,89.971924
2019-03-20T03:52:16.425Z,90.283203
2019-03-20T03:53:16.562Z,90.283203
2019-03-20T03:54:16.682Z,90.9729
2019-03-20T03:55:16.802Z,91.870117
2019-03-20T03:56:16.897Z,91.558838
2019-03-20T03:57:17.046Z,91.040039
2019-03-20T03:58:16.997Z,90.826416
2019-03-20T03:59:17.122Z,90.722656
2019-03-20T04:00:17.236Z,90.893555
2019-03-20T04:01:17.426Z,90.997314
2019-03-20T04:02:17.339Z,91.162109
2019-03-20T04:03:17.497Z,90.74707
2019-03-20T04:04:17.625Z,90.185547
2019-03-20T04:05:17.620Z,89.453125
2019-03-20T04:06:18.729Z,88.623047
2019-03-20T04:07:18.832Z,88.311768
2019-03-20T04:08:17.921Z,88.311768
2019-03-20T04:09:18.044Z,88.098145
2019-03-20T04:10:18.195Z,87.890625
2019-03-20T04:11:18.289Z,87.890625
2019-03-20T04:12:18.364Z,87.72583
2019-03-20T04:13:18.456Z,87.72583
2019-03-20T04:14:18.579Z,88.244629
2019-03-20T04:15:18.707Z,88.244629
2019-03-20T04:16:18.823Z,88.037109
2019-03-20T04:17:18.920Z,88.037109
2019-03-20T04:18:19.037Z,87.93335
2019-03-20T04:19:19.163Z,88.140869
2019-03-20T04:20:19.271Z,88.287354
2019-03-20T04:21:19.367Z,88.555908
2019-03-20T04:22:19.461Z,88.867188
2019-03-20T04:23:19.565Z,89.080811
2019-03-20T04:24:19.686Z,88.977051
2019-03-20T04:25:19.794Z,88.659668
2019-03-20T04:26:19.898Z,88.452148
2019-03-20T04:27:20.008Z,88.659668
2019-03-20T04:28:20.169Z,88.415527
2019-03-20T04:29:20.167Z,88.311768
2019-03-20T04:30:20.153Z,88.098145
2019-03-20T04:31:20.299Z,87.890625
2019-03-20T04:32:20.296Z,87.683105
2019-03-20T04:33:20.421Z,87.579346
2019-03-20T04:34:20.568Z,87.750244
2019-03-20T04:35:20.686Z,87.329102
2019-03-20T04:36:20.784Z,87.017822
2019-03-20T04:37:20.891Z,86.810303
2019-03-20T04:38:20.985Z,86.456299
2019-03-20T04:39:21.144Z,86.04126
2019-03-20T04:40:21.250Z,85.72998
2019-03-20T04:41:21.348Z,85.876465
2019-03-20T04:42:21.475Z,85.83374
2019-03-20T04:43:21.608Z,85.522461
2019-03-20T04:44:21.752Z,85.418701
2019-03-20T04:45:21.850Z,85.211182
2019-03-20T04:46:21.951Z,84.899902
2019-03-20T04:47:22.041Z,84.832764
2019-03-20T04:48:22.164Z,84.832764
2019-03-20T04:49:22.302Z,85.040283
2019-03-20T04:50:22.400Z,85.144043
2019-03-20T04:51:22.517Z,85.705566
2019-03-20T04:52:22.618Z,86.535645
2019-03-20T04:53:22.716Z,86.187744
2019-03-20T04:54:22.887Z,86.395264
2019-03-20T04:55:22.982Z,85.980225
2019-03-20T04:56:23.121Z,85.980225
2019-03-20T04:57:23.217Z,85.626221
2019-03-20T04:58:23.325Z,85.003662
2019-03-20T04:59:23.461Z,84.484863
2019-03-20T05:00:23.453Z,84.27124
2019-03-20T05:01:23.529Z,84.16748
2019-03-20T05:02:23.633Z,84.484863
2019-03-20T05:03:23.727Z,84.521484
2019-03-20T05:04:23.870Z,84.832764
2019-03-20T05:05:23.838Z,84.936523
2019-03-20T05:06:23.937Z,84.832764
2019-03-20T05:07:24.063Z,85.247803
2019-03-20T05:08:24.168Z,85.290527
2019-03-20T05:09:24.303Z,85.083008
2019-03-20T05:10:24.449Z,85.394287
2019-03-20T05:11:24.558Z,85.394287
2019-03-20T05:12:24.672Z,85.394287
2019-03-20T05:13:24.769Z,85.534668
2019-03-20T05:14:24.869Z,85.430908
2019-03-20T05:15:25.017Z,85.430908
2019-03-20T05:16:25.114Z,85.534668
2019-03-20T05:17:25.198Z,85.784912
2019-03-20T05:18:25.303Z,85.784912
2019-03-20T05:19:25.460Z,85.992432
2019-03-20T05:20:25.598Z,86.303711
2019-03-20T05:21:25.708Z,86.303711
2019-03-20T05:22:25.813Z,86.199951
2019-03-20T05:23:25.914Z,86.761475
2019-03-20T05:24:26.034Z,86.865234
2019-03-20T05:25:26.177Z,86.761475
2019-03-20T05:26:26.292Z,86.865234
2019-03-20T05:27:26.394Z,86.865234
2019-03-20T05:28:26.501Z,87.176514
2019-03-20T05:29:26.632Z,87.176514
2019-03-20T05:30:26.630Z,87.176514
2019-03-20T05:31:26.728Z,87.072754
2019-03-20T05:32:26.866Z,87.390137
2019-03-20T05:33:26.973Z,87.701416
2019-03-20T05:34:27.146Z,87.597656
2019-03-20T05:35:27.239Z,87.597656
2019-03-20T05:36:27.314Z,87.805176
2019-03-20T05:37:27.396Z,87.805176
2019-03-20T05:38:27.505Z,88.220215
2019-03-20T05:39:27.598Z,88.116455
2019-03-20T05:40:27.611Z,88.427734
2019-03-20T05:41:27.676Z,89.575195
2019-03-20T05:42:27.708Z,89.434814
2019-03-20T05:43:27.759Z,88.909912
2019-03-20T05:44:27.841Z,88.702393
2019-03-20T05:45:27.925Z,88.287354
2019-03-20T05:46:27.962Z,88.183594
2019-03-20T05:47:28.030Z,88.116455
2019-03-20T05:48:28.128Z,88.220215
2019-03-20T05:49:28.187Z,88.220215
2019-03-20T05:50:28.310Z,88.116455
2019-03-20T05:51:28.377Z,88.012695
2019-03-20T05:52:28.442Z,88.116455
2019-03-20T05:53:28.500Z,88.116455
2019-03-20T05:54:28.579Z,88.116455
2019-03-20T05:55:28.668Z,88.116455
2019-03-20T05:56:28.724Z,88.220215
2019-03-20T05:57:28.779Z,88.427734
2019-03-20T05:58:28.825Z,88.531494
2019-03-20T05:59:28.888Z,89.013672
2019-03-20T06:00:28.960Z,88.909912
2019-03-20T06:01:29.023Z,89.013672
2019-03-20T06:02:29.077Z,88.909912
2019-03-20T06:03:29.119Z,88.598633
2019-03-20T06:04:29.163Z,88.494873
2019-03-20T06:05:29.223Z,88.598633
2019-03-20T06:06:29.256Z,89.18457
2019-03-20T06:07:29.307Z,88.977051
2019-03-20T06:08:31.228Z,88.555908
2019-03-20T06:09:29.393Z,88.348389
2019-03-20T06:10:29.459Z,88.140869
2019-03-20T06:11:29.504Z,88.037109
2019-03-20T06:12:29.545Z,88.140869
2019-03-20T06:13:29.584Z,88.037109
2019-03-20T06:14:29.726Z,88.037109
2019-03-20T06:15:29.811Z,88.037109
2019-03-20T06:16:29.885Z,87.93335
2019-03-20T06:17:29.930Z,87.93335
2019-03-20T06:18:29.975Z,87.890625
2019-03-20T06:19:30.054Z,87.890625
2019-03-20T06:20:30.158Z,87.994385
2019-03-20T06:21:30.198Z,88.098145
2019-03-20T06:22:30.257Z,88.201904
2019-03-20T06:23:30.322Z,88.684082
2019-03-20T06:24:30.365Z,88.537598
2019-03-20T06:25:30.438Z,88.433838
2019-03-20T06:26:30.495Z,88.189697
2019-03-20T06:27:30.539Z,87.109375
2019-03-20T06:28:30.596Z,86.798096
2019-03-20T06:29:30.648Z,86.547852
2019-03-20T06:30:30.720Z,85.717773
2019-03-20T06:31:30.766Z,85.26001
2019-03-20T06:32:30.822Z,85.05249
2019-03-20T06:33:30.866Z,84.60083
2019-03-20T06:34:30.931Z,83.874512
2019-03-20T06:35:30.996Z,82.904053
2019-03-20T06:36:31.067Z,81.762695
2019-03-20T06:37:32.654Z,80.889893
2019-03-20T06:38:32.147Z,80.682373
2019-03-20T06:39:31.187Z,79.406738
2019-03-20T06:40:31.271Z,78.887939
2019-03-20T06:41:31.310Z,78.540039
2019-03-20T06:42:31.390Z,78.540039
2019-03-20T06:43:31.466Z,78.955078
2019-03-20T06:44:31.504Z,78.399658
2019-03-20T06:45:31.610Z,78.088379
2019-03-20T06:46:31.657Z,77.46582
2019-03-20T06:47:32.743Z,77.325439
2019-03-20T06:48:31.786Z,77.22168
2019-03-20T06:49:31.844Z,76.879883
2019-03-20T06:50:31.896Z,76.568604
2019-03-20T06:51:31.978Z,76.776123
2019-03-20T06:52:32.041Z,76.464844
2019-03-20T06:53:32.091Z,76.672363
2019-03-20T06:54:32.149Z,76.879883
2019-03-20T06:55:32.197Z,76.324463
2019-03-20T06:56:32.303Z,75.909424
2019-03-20T06:57:32.357Z,75.805664
2019-03-20T06:58:32.407Z,75.189209
2019-03-20T06:59:32.452Z,75.463867
2019-03-20T07:00:32.500Z,75.463867
2019-03-20T07:01:32.566Z,74.841309
2019-03-20T07:02:32.628Z,74.530029
2019-03-20T07:03:32.669Z,74.945068
2019-03-20T07:04:32.724Z,74.530029
2019-03-20T07:05:32.787Z,73.773193
2019-03-20T07:06:32.924Z,74.188232
2019-03-20T07:07:43.148Z,73.876953
2019-03-20T07:08:33.961Z,73.565674
2019-03-20T07:09:32.999Z,73.156738
2019-03-20T07:10:33.046Z,73.052979
2019-03-20T07:11:33.153Z,73.016357
2019-03-20T07:12:33.197Z,72.503662
2019-03-20T07:13:33.241Z,72.192383
2019-03-20T07:14:33.286Z,72.192383
2019-03-20T07:15:33.427Z,71.984863
2019-03-20T07:16:33.547Z,71.777344
2019-03-20T07:17:33.627Z,71.984863
2019-03-20T07:18:33.686Z,71.984863
2019-03-20T07:19:33.799Z,71.881104
2019-03-20T07:20:33.839Z,72.259521
2019-03-20T07:21:33.913Z,71.746826
2019-03-20T07:22:33.990Z,72.058105
2019-03-20T07:23:34.044Z,71.124268
2019-03-20T07:24:34.109Z,71.331787
2019-03-20T07:25:34.167Z,71.331787
2019-03-20T07:26:34.319Z,70.98999
2019-03-20T07:27:34.373Z,71.508789
2019-03-20T07:28:34.412Z,71.30127
2019-03-20T07:29:34.493Z,70.471191
2019-03-20T07:30:34.535Z,71.30127
2019-03-20T07:31:34.568Z,70.98999
2019-03-20T07:32:34.622Z,70.98999
2019-03-20T07:33:34.694Z,70.88623
2019-03-20T07:34:34.785Z,71.405029
2019-03-20T07:35:34.787Z,71.508789
2019-03-20T07:36:34.860Z,71.264648
2019-03-20T07:37:34.907Z,70.648193
2019-03-20T07:38:35.936Z,70.648193
2019-03-20T07:39:34.984Z,70.544434
2019-03-20T07:40:35.030Z,69.891357
2019-03-20T07:41:35.136Z,69.586182
2019-03-20T07:42:35.193Z,69.787598
2019-03-20T07:43:35.323Z,69.689941
2019-03-20T07:44:35.370Z,69.348145
2019-03-20T07:45:35.417Z,69.036865
2019-03-20T07:46:35.442Z,67.797852
2019-03-20T07:47:35.484Z,68.389893
2019-03-20T07:48:35.544Z,68.487549
2019-03-20T07:49:35.575Z,68.048096
2019-03-20T07:50:35.645Z,68.249512
2019-03-20T07:51:35.734Z,67.327881
2019-03-20T07:52:35.778Z,68.218994
2019-03-20T07:53:35.824Z,67.913818
2019-03-20T07:54:35.857Z,66.674805
2019-03-20T07:55:35.907Z,66.674805
2019-03-20T07:56:35.970Z,66.778564
2019-03-20T07:57:36.009Z,66.577148
2019-03-20T07:58:36.036Z,66.986084
2019-03-20T07:59:36.079Z,66.369629
2019-03-20T08:00:36.121Z,67.602539
2019-03-20T08:01:36.179Z,67.498779
2019-03-20T08:02:36.250Z,66.577148
2019-03-20T08:03:36.293Z,67.089844
2019-03-20T08:04:36.327Z,66.339111
2019-03-20T08:05:36.401Z,65.545654
2019-03-20T08:06:36.461Z,66.05835
2019-03-20T08:07:36.514Z,66.577148
2019-03-20T08:08:36.563Z,66.162109
2019-03-20T08:09:36.684Z,66.131592
2019-03-20T08:10:36.669Z,66.644287
2019-03-20T08:11:36.733Z,66.540527
2019-03-20T08:12:36.771Z,67.059326
2019-03-20T08:13:36.818Z,66.61377
2019-03-20T08:14:36.880Z,66.51001
2019-03-20T08:15:36.929Z,66.204834
2019-03-20T08:16:37.002Z,66.131592
2019-03-20T08:17:37.036Z,65.826416
2019-03-20T08:18:37.092Z,65.307617
2019-03-20T08:19:37.144Z,66.027832
2019-03-20T08:20:37.182Z,65.618896
2019-03-20T08:21:37.248Z,65.545654
2019-03-20T08:22:37.285Z,65.753174
2019-03-20T08:23:37.360Z,65.753174
2019-03-20T08:24:37.400Z,65.649414
2019-03-20T08:25:37.494Z,65.722656
2019-03-20T08:26:37.584Z,65.722656
2019-03-20T08:27:37.628Z,64.971924
2019-03-20T08:28:37.672Z,64.764404
2019-03-20T08:29:37.721Z,64.556885
2019-03-20T08:30:37.786Z,64.324951
2019-03-20T08:31:37.860Z,64.086914
2019-03-20T08:32:37.912Z,64.190674
2019-03-20T08:33:37.976Z,64.013672
2019-03-20T08:34:38.044Z,63.812256
2019-03-20T08:35:38.102Z,64.324951
2019-03-20T08:36:38.211Z,63.85498
2019-03-20T08:37:38.277Z,61.480713
2019-03-20T08:38:38.364Z,58.911133
2019-03-20T08:39:38.401Z,57.019043
2019-03-20T08:40:38.467Z,55.456543
2019-03-20T08:41:38.554Z,55.255127
2019-03-20T08:42:38.627Z,55.664062
2019-03-20T08:43:38.671Z,55.487061
2019-03-20T08:44:38.716Z,56.530762
2019-03-20T08:45:38.779Z,56.939697
2019-03-20T08:46:38.819Z,56.842041
2019-03-20T08:47:38.949Z,57.250977
2019-03-20T08:48:39.013Z,57.580566
2019-03-20T08:49:39.080Z,58.093262
2019-03-20T08:50:39.155Z,58.398438
2019-03-20T08:51:39.211Z,57.70874
2019-03-20T08:52:39.292Z,59.069824
2019-03-20T08:53:39.339Z,59.503174
2019-03-20T08:54:39.380Z,59.503174
2019-03-20T08:55:39.425Z,59.58252
2019-03-20T08:56:39.493Z,60.192871
2019-03-20T08:57:39.591Z,59.216309
2019-03-20T08:58:39.642Z,58.837891
2019-03-20T08:59:39.696Z,59.552002
2019-03-20T09:00:39.736Z,60.266113
2019-03-20T09:01:39.825Z,59.552002
2019-03-20T09:02:39.916Z,60.095215
2019-03-20T09:03:40.013Z,60.882568
2019-03-20T09:04:40.087Z,59.887695
2019-03-20T09:05:40.129Z,60.296631
2019-03-20T09:06:40.171Z,60.369873
2019-03-20T09:07:47.073Z,60.03418
2019-03-20T09:08:40.279Z,59.118652
2019-03-20T09:09:40.352Z,59.320068
2019-03-20T09:10:40.424Z,59.393311
2019-03-20T09:11:40.475Z,59.234619
2019-03-20T09:12:40.563Z,57.342529
2019-03-20T09:13:40.617Z,56.80542
2019-03-20T09:14:40.688Z,56.707764
2019-03-20T09:15:40.737Z,56.402588
2019-03-20T09:16:40.791Z,56.018066
2019-03-20T09:17:40.878Z,56.939697
2019-03-20T09:18:40.918Z,57.067871
2019-03-20T09:19:40.977Z,58.190918
2019-03-20T09:20:41.035Z,56.964111
2019-03-20T09:21:41.108Z,57.373047
2019-03-20T09:22:41.192Z,56.781006
2019-03-20T09:23:41.230Z,55.432129
2019-03-20T09:24:41.284Z,54.388428
2019-03-20T09:25:41.347Z,55.432129
2019-03-20T09:26:41.422Z,55.224609
2019-03-20T09:27:41.543Z,55.688477
2019-03-20T09:28:41.587Z,57.037354
2019-03-20T09:29:41.630Z,57.141113
2019-03-20T09:30:41.682Z,57.269287
2019-03-20T09:31:41.749Z,58.087158
2019-03-20T09:32:41.827Z,57.781982
2019-03-20T09:33:41.927Z,58.26416
2019-03-20T09:34:42.002Z,57.678223
2019-03-20T09:35:42.079Z,58.087158
2019-03-20T09:36:43.248Z,59.002686
2019-03-20T09:37:51.173Z,58.1604
2019-03-20T09:38:43.546Z,58.465576
2019-03-20T09:39:42.360Z,57.855225
2019-03-20T09:40:42.444Z,57.751465
2019-03-20T09:41:42.514Z,58.233643
2019-03-20T09:42:42.672Z,57.928467
2019-03-20T09:43:42.656Z,58.746338
2019-03-20T09:44:42.757Z,58.618164
2019-03-20T09:45:42.812Z,57.977295
2019-03-20T09:46:42.794Z,58.227539
2019-03-20T09:47:42.834Z,56.677246
2019-03-20T09:48:42.935Z,56.268311
2019-03-20T09:49:42.958Z,56.469727
2019-03-20T09:50:43.014Z,56.573486
2019-03-20T09:51:43.018Z,56.5979
2019-03-20T09:52:43.170Z,56.5979
2019-03-20T09:53:43.184Z,55.914307
2019-03-20T09:54:43.232Z,56.549072
2019-03-20T09:55:43.340Z,57.598877
2019-03-20T09:56:43.419Z,58.184814
2019-03-20T09:57:43.593Z,57.495117
2019-03-20T09:58:43.608Z,58.410645
2019-03-20T09:59:45.796Z,58.38623
2019-03-20T10:00:43.625Z,57.775879
2019-03-20T10:01:43.628Z,58.209229
2019-03-20T10:02:43.707Z,58.587646
2019-03-20T10:03:43.738Z,57.977295
2019-03-20T10:04:43.837Z,57.672119
2019-03-20T10:05:43.816Z,57.061768
2019-03-20T10:06:43.816Z,57.672119
2019-03-20T10:07:43.872Z,57.849121
2019-03-20T10:08:53.572Z,57.037354
2019-03-20T10:09:44.020Z,56.70166
2019-03-20T10:10:44.043Z,57.415771
2019-03-20T10:11:44.053Z,57.415771
2019-03-20T10:12:44.070Z,58.508301
2019-03-20T10:13:44.078Z,57.794189
2019-03-20T10:14:44.094Z,57.208252
2019-03-20T10:15:44.132Z,56.933594
2019-03-20T10:16:44.128Z,58.154297
2019-03-20T10:17:44.198Z,59.509277
2019-03-20T10:18:44.204Z,59.301758
2019-03-20T10:19:44.262Z,59.405518
2019-03-20T10:20:44.379Z,59.912109
2019-03-20T10:21:44.431Z,59.783936
2019-03-20T10:22:44.525Z,58.666992
2019-03-20T10:23:44.583Z,59.100342
2019-03-20T10:24:44.605Z,58.666992
2019-03-20T10:25:45.077Z,59.375
2019-03-20T10:26:44.686Z,59.655762
2019-03-20T10:27:44.843Z,58.94165
2019-03-20T10:28:44.834Z,58.94165
2019-03-20T10:29:44.960Z,59.655762
2019-03-20T10:30:44.971Z,59.246826
2019-03-20T10:31:45.041Z,59.857178
2019-03-20T10:32:45.099Z,58.227539
2019-03-20T10:33:45.098Z,57.922363
2019-03-20T10:34:45.131Z,58.227539
2019-03-20T10:35:50.072Z,58.026123
2019-03-20T10:36:45.157Z,58.740234
2019-03-20T10:37:45.277Z,58.459473
2019-03-20T10:38:45.304Z,58.764648
2019-03-20T10:39:46.341Z,59.118652
2019-03-20T10:40:45.394Z,57.995605
2019-03-20T10:41:45.450Z,58.099365
2019-03-20T10:42:45.648Z,58.099365
2019-03-20T10:43:45.598Z,58.172607
2019-03-20T10:44:45.714Z,56.951904
2019-03-20T10:45:45.759Z,58.477783
2019-03-20T10:46:45.805Z,57.36084
2019-03-20T10:47:45.894Z,56.646729
2019-03-20T10:48:45.992Z,56.573486
2019-03-20T10:49:46.065Z,58.050537
2019-03-20T10:50:46.133Z,59.069824
2019-03-20T10:51:46.202Z,59.069824
2019-03-20T10:52:46.279Z,59.04541
2019-03-20T10:53:46.315Z,58.331299
2019-03-20T10:54:46.373Z,58.026123
2019-03-20T10:55:46.429Z,58.532715
2019-03-20T10:56:46.450Z,57.312012
2019-03-20T10:57:46.534Z,57.849121
2019-03-20T10:58:46.614Z,57.775879
2019-03-20T10:59:46.701Z,58.184814
2019-03-20T11:00:46.753Z,59.197998
2019-03-20T11:01:46.831Z,58.587646
2019-03-20T11:02:46.891Z,58.48999
2019-03-20T11:03:47.027Z,59.197998
2019-03-20T11:04:47.070Z,59.173584
2019-03-20T11:05:47.121Z,58.258057
2019-03-20T11:06:47.179Z,57.23877
2019-03-20T11:07:47.241Z,57.208252
2019-03-20T11:08:47.331Z,57.342529
2019-03-20T11:09:47.404Z,58.666992
2019-03-20T11:10:47.432Z,58.532715
2019-03-20T11:11:47.494Z,57.995605
2019-03-20T11:12:47.553Z,58.099365
2019-03-20T11:13:47.644Z,57.055664
2019-03-20T11:14:47.694Z,56.677246
2019-03-20T11:15:47.739Z,57.23877
2019-03-20T11:16:47.797Z,58.154297
2019-03-20T11:17:47.846Z,58.355713
2019-03-20T11:18:48.580Z,58.355713
2019-03-20T11:19:48.000Z,58.331299
2019-03-20T11:20:48.036Z,57.922363
2019-03-20T11:21:48.089Z,57.592773
2019-03-20T11:22:48.145Z,57.183838
2019-03-20T11:23:48.224Z,57.287598
2019-03-20T11:24:48.392Z,57.287598
2019-03-20T11:25:48.335Z,56.854248
2019-03-20T11:26:49.368Z,57.080078
2019-03-20T11:27:48.410Z,57.36084